sensor_id;sensor_type;location;lat;lon;timestamp;P1;durP1;ratioP1;P2;durP2;ratioP2
37445;SDS011;23307;51.136;14.942;2022-11-18T00:01:30;18.90;;;14.23;;
37445;SDS011;23307;51.136;14.942;2022-11-18T00:03:56;17.27;;;14.03;;
37445;SDS011;23307;51.136;14.942;2022-11-18T00:06:22;18.77;;;13.67;;
37445;SDS011;23307;51.136;14.942;2022-11-18T00:08:50;21.97;;;13.87;;
37445;SDS011;23307;51.136;14.942;2022-11-18T00:11:19;18.90;;;14.23;;
37445;SDS011;23307;51.136;14.942;2022-11-18T00:14:05;18.47;;;13.53;;
37445;SDS011;23307;51.136;14.942;2022-11-18T00:16:54;18.07;;;14.00;;
37445;SDS011;23307;51.136;14.942;2022-11-18T00:19:29;19.60;;;13.53;;
37445;SDS011;23307;51.136;14.942;2022-11-18T00:21:59;18.47;;;14.27;;
37445;SDS011;23307;51.136;14.942;2022-11-18T00:24:25;17.57;;;14.53;;
37445;SDS011;23307;51.136;14.942;2022-11-18T00:26:51;21.27;;;14.27;;
37445;SDS011;23307;51.136;14.942;2022-11-18T00:29:18;17.10;;;13.03;;
37445;SDS011;23307;51.136;14.942;2022-11-18T00:31:44;17.37;;;13.73;;
37445;SDS011;23307;51.136;14.942;2022-11-18T00:34:10;16.20;;;13.50;;
37445;SDS011;23307;51.136;14.942;2022-11-18T00:36:38;17.00;;;13.73;;
37445;SDS011;23307;51.136;14.942;2022-11-18T00:39:04;15.70;;;12.97;;
37445;SDS011;23307;51.136;14.942;2022-11-18T00:41:30;18.57;;;13.37;;
37445;SDS011;23307;51.136;14.942;2022-11-18T00:44:14;18.53;;;13.87;;
37445;SDS011;23307;51.136;14.942;2022-11-18T00:46:40;19.13;;;15.00;;
37445;SDS011;23307;51.136;14.942;2022-11-18T00:49:05;20.50;;;14.77;;
37445;SDS011;23307;51.136;14.942;2022-11-18T00:51:31;18.37;;;13.33;;
37445;SDS011;23307;51.136;14.942;2022-11-18T00:53:56;19.23;;;14.40;;
37445;SDS011;23307;51.136;14.942;2022-11-18T00:56:22;18.53;;;14.23;;
37445;SDS011;23307;51.136;14.942;2022-11-18T00:58:47;21.17;;;14.83;;
37445;SDS011;23307;51.136;14.942;2022-11-18T01:01:13;19.63;;;14.30;;
37445;SDS011;23307;51.136;14.942;2022-11-18T01:03:38;19.63;;;14.90;;
37445;SDS011;23307;51.136;14.942;2022-11-18T01:06:04;20.80;;;15.50;;
37445;SDS011;23307;51.136;14.942;2022-11-18T01:08:30;17.33;;;13.47;;
37445;SDS011;23307;51.136;14.942;2022-11-18T01:10:55;20.10;;;14.50;;
37445;SDS011;23307;51.136;14.942;2022-11-18T01:13:41;18.37;;;13.63;;
37445;SDS011;23307;51.136;14.942;2022-11-18T01:16:06;17.07;;;13.80;;
37445;SDS011;23307;51.136;14.942;2022-11-18T01:18:32;19.10;;;14.40;;
37445;SDS011;23307;51.136;14.942;2022-11-18T01:21:01;19.13;;;14.27;;
37445;SDS011;23307;51.136;14.942;2022-11-18T01:23:27;18.10;;;14.60;;
37445;SDS011;23307;51.136;14.942;2022-11-18T01:25:53;19.07;;;14.13;;
37445;SDS011;23307;51.136;14.942;2022-11-18T01:28:19;18.70;;;14.07;;
37445;SDS011;23307;51.136;14.942;2022-11-18T01:30:45;18.27;;;14.10;;
37445;SDS011;23307;51.136;14.942;2022-11-18T01:33:11;19.90;;;14.53;;
37445;SDS011;23307;51.136;14.942;2022-11-18T01:35:38;18.37;;;14.27;;
37445;SDS011;23307;51.136;14.942;2022-11-18T01:38:07;20.07;;;15.17;;
37445;SDS011;23307;51.136;14.942;2022-11-18T01:40:34;20.47;;;14.90;;
37445;SDS011;23307;51.136;14.942;2022-11-18T01:43:01;19.97;;;14.77;;
37445;SDS011;23307;51.136;14.942;2022-11-18T01:45:34;19.40;;;14.47;;
37445;SDS011;23307;51.136;14.942;2022-11-18T01:50:51;20.63;;;15.20;;
37445;SDS011;23307;51.136;14.942;2022-11-18T01:53:39;20.57;;;14.53;;
37445;SDS011;23307;51.136;14.942;2022-11-18T01:56:13;22.40;;;15.90;;
37445;SDS011;23307;51.136;14.942;2022-11-18T02:01:15;19.60;;;14.77;;
37445;SDS011;23307;51.136;14.942;2022-11-18T02:03:41;21.93;;;15.83;;
37445;SDS011;23307;51.136;14.942;2022-11-18T02:06:09;20.63;;;14.70;;
37445;SDS011;23307;51.136;14.942;2022-11-18T02:08:35;20.20;;;14.73;;
37445;SDS011;23307;51.136;14.942;2022-11-18T02:11:03;20.20;;;14.20;;
37445;SDS011;23307;51.136;14.942;2022-11-18T02:13:56;20.80;;;14.77;;
37445;SDS011;23307;51.136;14.942;2022-11-18T02:16:25;19.77;;;14.47;;
37445;SDS011;23307;51.136;14.942;2022-11-18T02:30:39;21.77;;;15.30;;
37445;SDS011;23307;51.136;14.942;2022-11-18T02:33:32;22.07;;;15.33;;
37445;SDS011;23307;51.136;14.942;2022-11-18T02:36:26;22.87;;;14.57;;
37445;SDS011;23307;51.136;14.942;2022-11-18T02:38:56;21.90;;;14.67;;
37445;SDS011;23307;51.136;14.942;2022-11-18T02:41:27;19.93;;;15.17;;
37445;SDS011;23307;51.136;14.942;2022-11-18T02:43:58;23.13;;;15.80;;
37445;SDS011;23307;51.136;14.942;2022-11-18T02:46:30;24.53;;;15.93;;
37445;SDS011;23307;51.136;14.942;2022-11-18T02:48:58;22.23;;;15.93;;
37445;SDS011;23307;51.136;14.942;2022-11-18T02:51:27;21.20;;;16.03;;
37445;SDS011;23307;51.136;14.942;2022-11-18T02:53:55;22.73;;;15.67;;
37445;SDS011;23307;51.136;14.942;2022-11-18T02:56:26;22.93;;;15.93;;
37445;SDS011;23307;51.136;14.942;2022-11-18T02:58:53;21.83;;;16.07;;
37445;SDS011;23307;51.136;14.942;2022-11-18T03:01:20;23.83;;;16.03;;
37445;SDS011;23307;51.136;14.942;2022-11-18T03:03:51;23.30;;;16.33;;
37445;SDS011;23307;51.136;14.942;2022-11-18T03:06:31;23.37;;;15.53;;
37445;SDS011;23307;51.136;14.942;2022-11-18T03:09:23;23.57;;;15.73;;
37445;SDS011;23307;51.136;14.942;2022-11-18T03:12:02;22.17;;;16.03;;
37445;SDS011;23307;51.136;14.942;2022-11-18T03:14:55;24.90;;;16.53;;
37445;SDS011;23307;51.136;14.942;2022-11-18T03:17:42;23.33;;;16.07;;
37445;SDS011;23307;51.136;14.942;2022-11-18T03:22:56;22.57;;;15.47;;
37445;SDS011;23307;51.136;14.942;2022-11-18T03:25:52;22.60;;;16.00;;
37445;SDS011;23307;51.136;14.942;2022-11-18T03:28:33;23.60;;;16.00;;
37445;SDS011;23307;51.136;14.942;2022-11-18T03:31:25;23.23;;;15.93;;
37445;SDS011;23307;51.136;14.942;2022-11-18T03:34:14;24.77;;;14.57;;
37445;SDS011;23307;51.136;14.942;2022-11-18T03:37:00;23.33;;;15.57;;
37445;SDS011;23307;51.136;14.942;2022-11-18T03:39:30;24.87;;;15.83;;
37445;SDS011;23307;51.136;14.942;2022-11-18T03:42:07;21.63;;;15.43;;
37445;SDS011;23307;51.136;14.942;2022-11-18T03:44:49;23.43;;;15.23;;
37445;SDS011;23307;51.136;14.942;2022-11-18T03:47:20;22.40;;;15.53;;
37445;SDS011;23307;51.136;14.942;2022-11-18T03:49:52;20.53;;;14.73;;
37445;SDS011;23307;51.136;14.942;2022-11-18T03:52:24;22.60;;;15.73;;
37445;SDS011;23307;51.136;14.942;2022-11-18T03:54:54;20.17;;;14.93;;
37445;SDS011;23307;51.136;14.942;2022-11-18T03:57:24;22.40;;;15.50;;
37445;SDS011;23307;51.136;14.942;2022-11-18T04:00:09;24.00;;;15.00;;
37445;SDS011;23307;51.136;14.942;2022-11-18T04:02:37;22.83;;;14.97;;
37445;SDS011;23307;51.136;14.942;2022-11-18T04:05:04;23.23;;;15.43;;
37445;SDS011;23307;51.136;14.942;2022-11-18T04:07:34;21.30;;;15.37;;
37445;SDS011;23307;51.136;14.942;2022-11-18T04:10:17;21.17;;;15.07;;
37445;SDS011;23307;51.136;14.942;2022-11-18T04:12:53;20.73;;;15.33;;
37445;SDS011;23307;51.136;14.942;2022-11-18T04:15:37;21.50;;;15.63;;
37445;SDS011;23307;51.136;14.942;2022-11-18T04:18:05;19.30;;;14.47;;
37445;SDS011;23307;51.136;14.942;2022-11-18T04:20:31;21.17;;;14.77;;
37445;SDS011;23307;51.136;14.942;2022-11-18T04:22:57;21.87;;;14.83;;
37445;SDS011;23307;51.136;14.942;2022-11-18T04:25:23;24.20;;;15.60;;
37445;SDS011;23307;51.136;14.942;2022-11-18T04:27:49;22.47;;;15.53;;
37445;SDS011;23307;51.136;14.942;2022-11-18T04:30:15;22.87;;;15.27;;
37445;SDS011;23307;51.136;14.942;2022-11-18T04:32:41;21.03;;;15.23;;
37445;SDS011;23307;51.136;14.942;2022-11-18T04:35:06;23.70;;;15.90;;
37445;SDS011;23307;51.136;14.942;2022-11-18T04:37:32;21.47;;;14.43;;
37445;SDS011;23307;51.136;14.942;2022-11-18T04:39:58;20.23;;;13.87;;
37445;SDS011;23307;51.136;14.942;2022-11-18T04:42:24;21.73;;;15.40;;
37445;SDS011;23307;51.136;14.942;2022-11-18T04:44:50;21.03;;;14.97;;
37445;SDS011;23307;51.136;14.942;2022-11-18T04:47:15;22.70;;;15.07;;
37445;SDS011;23307;51.136;14.942;2022-11-18T04:49:41;20.90;;;14.60;;
37445;SDS011;23307;51.136;14.942;2022-11-18T04:52:06;22.53;;;16.00;;
37445;SDS011;23307;51.136;14.942;2022-11-18T04:54:32;21.07;;;14.73;;
37445;SDS011;23307;51.136;14.942;2022-11-18T04:56:58;19.87;;;15.27;;
37445;SDS011;23307;51.136;14.942;2022-11-18T04:59:24;19.83;;;14.70;;
37445;SDS011;23307;51.136;14.942;2022-11-18T05:01:52;17.63;;;14.13;;
37445;SDS011;23307;51.136;14.942;2022-11-18T05:04:19;22.23;;;15.33;;
37445;SDS011;23307;51.136;14.942;2022-11-18T05:06:46;19.43;;;14.27;;
37445;SDS011;23307;51.136;14.942;2022-11-18T05:09:12;21.67;;;14.50;;
37445;SDS011;23307;51.136;14.942;2022-11-18T05:11:37;18.63;;;14.17;;
37445;SDS011;23307;51.136;14.942;2022-11-18T05:14:23;21.37;;;14.73;;
37445;SDS011;23307;51.136;14.942;2022-11-18T05:16:53;17.60;;;13.87;;
37445;SDS011;23307;51.136;14.942;2022-11-18T05:19:20;19.80;;;13.97;;
37445;SDS011;23307;51.136;14.942;2022-11-18T05:21:45;18.33;;;12.80;;
37445;SDS011;23307;51.136;14.942;2022-11-18T05:24:11;17.63;;;13.57;;
37445;SDS011;23307;51.136;14.942;2022-11-18T05:26:36;19.30;;;13.43;;
37445;SDS011;23307;51.136;14.942;2022-11-18T05:29:03;20.43;;;13.63;;
37445;SDS011;23307;51.136;14.942;2022-11-18T05:31:55;18.57;;;13.47;;
37445;SDS011;23307;51.136;14.942;2022-11-18T05:37:12;17.20;;;12.77;;
37445;SDS011;23307;51.136;14.942;2022-11-18T05:42:29;18.17;;;13.30;;
37445;SDS011;23307;51.136;14.942;2022-11-18T05:45:45;18.00;;;12.93;;
37445;SDS011;23307;51.136;14.942;2022-11-18T05:48:27;18.53;;;12.83;;
37445;SDS011;23307;51.136;14.942;2022-11-18T05:50:59;18.57;;;12.40;;
37445;SDS011;23307;51.136;14.942;2022-11-18T05:53:33;19.57;;;13.40;;
37445;SDS011;23307;51.136;14.942;2022-11-18T06:02:49;15.43;;;11.63;;
37445;SDS011;23307;51.136;14.942;2022-11-18T06:05:15;15.43;;;12.30;;
37445;SDS011;23307;51.136;14.942;2022-11-18T06:07:42;16.13;;;11.83;;
37445;SDS011;23307;51.136;14.942;2022-11-18T06:10:09;17.83;;;12.73;;
37445;SDS011;23307;51.136;14.942;2022-11-18T06:12:40;16.93;;;12.43;;
37445;SDS011;23307;51.136;14.942;2022-11-18T06:17:40;17.07;;;11.40;;
37445;SDS011;23307;51.136;14.942;2022-11-18T06:20:09;16.60;;;12.07;;
37445;SDS011;23307;51.136;14.942;2022-11-18T06:22:35;15.37;;;11.20;;
37445;SDS011;23307;51.136;14.942;2022-11-18T06:25:01;16.10;;;11.40;;
37445;SDS011;23307;51.136;14.942;2022-11-18T06:27:28;14.40;;;10.57;;
37445;SDS011;23307;51.136;14.942;2022-11-18T06:29:54;16.57;;;11.40;;
37445;SDS011;23307;51.136;14.942;2022-11-18T06:32:19;14.73;;;11.60;;
37445;SDS011;23307;51.136;14.942;2022-11-18T06:34:45;19.93;;;13.93;;
37445;SDS011;23307;51.136;14.942;2022-11-18T06:37:14;16.87;;;13.17;;
37445;SDS011;23307;51.136;14.942;2022-11-18T06:39:41;17.83;;;12.83;;
37445;SDS011;23307;51.136;14.942;2022-11-18T06:42:06;21.03;;;14.53;;
37445;SDS011;23307;51.136;14.942;2022-11-18T06:44:32;16.20;;;11.77;;
37445;SDS011;23307;51.136;14.942;2022-11-18T06:46:57;15.07;;;11.57;;
37445;SDS011;23307;51.136;14.942;2022-11-18T06:49:24;15.50;;;11.20;;
37445;SDS011;23307;51.136;14.942;2022-11-18T06:51:50;15.33;;;11.27;;
37445;SDS011;23307;51.136;14.942;2022-11-18T06:54:16;12.63;;;10.53;;
37445;SDS011;23307;51.136;14.942;2022-11-18T06:56:42;15.67;;;11.37;;
37445;SDS011;23307;51.136;14.942;2022-11-18T06:59:07;14.60;;;10.90;;
37445;SDS011;23307;51.136;14.942;2022-11-18T07:01:34;14.03;;;10.90;;
37445;SDS011;23307;51.136;14.942;2022-11-18T07:04:01;13.30;;;10.43;;
37445;SDS011;23307;51.136;14.942;2022-11-18T07:06:28;13.80;;;10.57;;
37445;SDS011;23307;51.136;14.942;2022-11-18T07:08:58;16.33;;;10.77;;
37445;SDS011;23307;51.136;14.942;2022-11-18T07:11:28;15.53;;;11.70;;
37445;SDS011;23307;51.136;14.942;2022-11-18T07:13:54;17.97;;;13.33;;
37445;SDS011;23307;51.136;14.942;2022-11-18T07:16:21;22.13;;;14.23;;
37445;SDS011;23307;51.136;14.942;2022-11-18T07:18:49;20.77;;;14.33;;
37445;SDS011;23307;51.136;14.942;2022-11-18T07:21:16;18.87;;;14.43;;
37445;SDS011;23307;51.136;14.942;2022-11-18T07:23:46;21.57;;;14.10;;
37445;SDS011;23307;51.136;14.942;2022-11-18T07:26:12;17.43;;;13.80;;
37445;SDS011;23307;51.136;14.942;2022-11-18T07:28:38;22.60;;;14.57;;
37445;SDS011;23307;51.136;14.942;2022-11-18T07:33:40;18.57;;;13.50;;
37445;SDS011;23307;51.136;14.942;2022-11-18T07:36:11;19.73;;;14.57;;
37445;SDS011;23307;51.136;14.942;2022-11-18T07:38:38;19.80;;;13.30;;
37445;SDS011;23307;51.136;14.942;2022-11-18T07:43:34;19.67;;;14.20;;
37445;SDS011;23307;51.136;14.942;2022-11-18T07:46:19;19.67;;;14.17;;
37445;SDS011;23307;51.136;14.942;2022-11-18T07:48:56;20.40;;;14.00;;
37445;SDS011;23307;51.136;14.942;2022-11-18T07:51:24;20.07;;;13.57;;
37445;SDS011;23307;51.136;14.942;2022-11-18T07:53:54;20.47;;;15.23;;
37445;SDS011;23307;51.136;14.942;2022-11-18T07:56:20;20.70;;;14.43;;
37445;SDS011;23307;51.136;14.942;2022-11-18T07:58:46;17.93;;;13.53;;
37445;SDS011;23307;51.136;14.942;2022-11-18T08:01:15;18.43;;;13.27;;
37445;SDS011;23307;51.136;14.942;2022-11-18T08:03:42;17.27;;;13.07;;
37445;SDS011;23307;51.136;14.942;2022-11-18T08:06:09;18.80;;;13.73;;
37445;SDS011;23307;51.136;14.942;2022-11-18T08:08:36;20.77;;;14.67;;
37445;SDS011;23307;51.136;14.942;2022-11-18T08:11:02;19.07;;;15.23;;
37445;SDS011;23307;51.136;14.942;2022-11-18T08:13:30;20.47;;;14.83;;
37445;SDS011;23307;51.136;14.942;2022-11-18T08:15:56;21.40;;;15.30;;
37445;SDS011;23307;51.136;14.942;2022-11-18T08:18:21;21.53;;;16.37;;
37445;SDS011;23307;51.136;14.942;2022-11-18T08:20:48;29.93;;;18.13;;
37445;SDS011;23307;51.136;14.942;2022-11-18T08:23:14;21.07;;;16.60;;
37445;SDS011;23307;51.136;14.942;2022-11-18T08:25:41;23.90;;;17.53;;
37445;SDS011;23307;51.136;14.942;2022-11-18T08:28:08;26.27;;;18.30;;
37445;SDS011;23307;51.136;14.942;2022-11-18T08:30:34;23.47;;;17.90;;
37445;SDS011;23307;51.136;14.942;2022-11-18T08:33:00;25.17;;;18.63;;
37445;SDS011;23307;51.136;14.942;2022-11-18T08:35:26;27.37;;;20.67;;
37445;SDS011;23307;51.136;14.942;2022-11-18T08:37:53;27.40;;;18.67;;
37445;SDS011;23307;51.136;14.942;2022-11-18T08:40:18;27.23;;;20.03;;
37445;SDS011;23307;51.136;14.942;2022-11-18T08:42:44;25.90;;;19.20;;
37445;SDS011;23307;51.136;14.942;2022-11-18T08:45:09;25.30;;;18.80;;
37445;SDS011;23307;51.136;14.942;2022-11-18T08:47:35;25.70;;;19.80;;
37445;SDS011;23307;51.136;14.942;2022-11-18T08:50:02;25.87;;;19.17;;
37445;SDS011;23307;51.136;14.942;2022-11-18T08:52:30;25.57;;;18.93;;
37445;SDS011;23307;51.136;14.942;2022-11-18T08:54:55;25.93;;;18.50;;
37445;SDS011;23307;51.136;14.942;2022-11-18T08:57:21;24.23;;;18.67;;
37445;SDS011;23307;51.136;14.942;2022-11-18T08:59:47;27.40;;;19.93;;
37445;SDS011;23307;51.136;14.942;2022-11-18T09:02:13;26.07;;;18.90;;
37445;SDS011;23307;51.136;14.942;2022-11-18T09:04:39;25.00;;;18.70;;
37445;SDS011;23307;51.136;14.942;2022-11-18T09:07:05;27.43;;;19.43;;
37445;SDS011;23307;51.136;14.942;2022-11-18T09:09:31;24.37;;;17.87;;
37445;SDS011;23307;51.136;14.942;2022-11-18T09:11:57;25.20;;;18.23;;
37445;SDS011;23307;51.136;14.942;2022-11-18T09:14:22;24.60;;;18.07;;
37445;SDS011;23307;51.136;14.942;2022-11-18T09:16:48;26.13;;;19.37;;
37445;SDS011;23307;51.136;14.942;2022-11-18T09:19:13;29.53;;;20.47;;
37445;SDS011;23307;51.136;14.942;2022-11-18T09:21:40;28.10;;;20.70;;
37445;SDS011;23307;51.136;14.942;2022-11-18T09:24:06;29.57;;;21.20;;
37445;SDS011;23307;51.136;14.942;2022-11-18T09:26:32;28.47;;;21.67;;
37445;SDS011;23307;51.136;14.942;2022-11-18T09:28:59;30.43;;;21.97;;
37445;SDS011;23307;51.136;14.942;2022-11-18T09:31:24;28.63;;;21.20;;
37445;SDS011;23307;51.136;14.942;2022-11-18T09:33:50;29.13;;;21.83;;
37445;SDS011;23307;51.136;14.942;2022-11-18T09:36:19;34.30;;;23.67;;
37445;SDS011;23307;51.136;14.942;2022-11-18T09:38:47;33.13;;;22.93;;
37445;SDS011;23307;51.136;14.942;2022-11-18T09:44:04;32.10;;;21.83;;
37445;SDS011;23307;51.136;14.942;2022-11-18T09:49:25;31.27;;;22.93;;
37445;SDS011;23307;51.136;14.942;2022-11-18T09:51:57;32.70;;;22.77;;
37445;SDS011;23307;51.136;14.942;2022-11-18T09:54:31;33.40;;;23.40;;
37445;SDS011;23307;51.136;14.942;2022-11-18T09:56:59;29.73;;;22.33;;
37445;SDS011;23307;51.136;14.942;2022-11-18T09:59:25;30.90;;;22.83;;
37445;SDS011;23307;51.136;14.942;2022-11-18T10:01:56;32.07;;;22.33;;
37445;SDS011;23307;51.136;14.942;2022-11-18T10:04:27;31.17;;;21.83;;
37445;SDS011;23307;51.136;14.942;2022-11-18T10:06:53;29.77;;;21.30;;
37445;SDS011;23307;51.136;14.942;2022-11-18T10:22:54;29.87;;;21.07;;
37445;SDS011;23307;51.136;14.942;2022-11-18T10:25:26;29.20;;;21.23;;
37445;SDS011;23307;51.136;14.942;2022-11-18T10:27:52;29.13;;;21.03;;
37445;SDS011;23307;51.136;14.942;2022-11-18T10:30:21;31.53;;;22.37;;
37445;SDS011;23307;51.136;14.942;2022-11-18T10:35:32;33.33;;;23.07;;
37445;SDS011;23307;51.136;14.942;2022-11-18T10:38:01;32.30;;;23.30;;
37445;SDS011;23307;51.136;14.942;2022-11-18T10:40:43;31.70;;;22.13;;
37445;SDS011;23307;51.136;14.942;2022-11-18T10:46:37;29.67;;;22.83;;
37445;SDS011;23307;51.136;14.942;2022-11-18T10:51:33;33.47;;;22.97;;
37445;SDS011;23307;51.136;14.942;2022-11-18T10:54:23;31.27;;;22.27;;
37445;SDS011;23307;51.136;14.942;2022-11-18T11:01:57;33.23;;;22.27;;
37445;SDS011;23307;51.136;14.942;2022-11-18T11:04:25;33.23;;;23.33;;
37445;SDS011;23307;51.136;14.942;2022-11-18T11:06:52;31.77;;;22.73;;
37445;SDS011;23307;51.136;14.942;2022-11-18T11:17:18;31.70;;;22.27;;
37445;SDS011;23307;51.136;14.942;2022-11-18T11:20:08;29.63;;;21.40;;
37445;SDS011;23307;51.136;14.942;2022-11-18T11:22:34;30.27;;;21.70;;
37445;SDS011;23307;51.136;14.942;2022-11-18T11:25:00;32.27;;;21.27;;
37445;SDS011;23307;51.136;14.942;2022-11-18T11:27:36;29.37;;;22.53;;
37445;SDS011;23307;51.136;14.942;2022-11-18T11:30:18;32.43;;;22.93;;
37445;SDS011;23307;51.136;14.942;2022-11-18T11:35:24;34.53;;;24.43;;
37445;SDS011;23307;51.136;14.942;2022-11-18T11:37:57;31.00;;;21.93;;
37445;SDS011;23307;51.136;14.942;2022-11-18T11:40:40;32.17;;;22.77;;
37445;SDS011;23307;51.136;14.942;2022-11-18T11:56:44;33.17;;;24.03;;
37445;SDS011;23307;51.136;14.942;2022-11-18T12:07:11;32.63;;;23.90;;
37445;SDS011;23307;51.136;14.942;2022-11-18T12:14:56;35.40;;;23.03;;
37445;SDS011;23307;51.136;14.942;2022-11-18T12:17:29;33.77;;;23.50;;
37445;SDS011;23307;51.136;14.942;2022-11-18T12:20:29;35.53;;;23.70;;
37445;SDS011;23307;51.136;14.942;2022-11-18T12:23:26;31.87;;;23.33;;
37445;SDS011;23307;51.136;14.942;2022-11-18T12:25:53;29.83;;;22.70;;
37445;SDS011;23307;51.136;14.942;2022-11-18T12:33:42;30.27;;;21.00;;
37445;SDS011;23307;51.136;14.942;2022-11-18T12:36:08;28.67;;;20.67;;
37445;SDS011;23307;51.136;14.942;2022-11-18T12:38:34;30.20;;;21.37;;
37445;SDS011;23307;51.136;14.942;2022-11-18T12:40:59;27.47;;;20.47;;
37445;SDS011;23307;51.136;14.942;2022-11-18T12:49:48;26.87;;;19.57;;
37445;SDS011;23307;51.136;14.942;2022-11-18T12:51:47;29.53;;;20.83;;
37445;SDS011;23307;51.136;14.942;2022-11-18T12:54:28;29.37;;;19.30;;
37445;SDS011;23307;51.136;14.942;2022-11-18T12:57:09;26.77;;;20.23;;
37445;SDS011;23307;51.136;14.942;2022-11-18T12:59:42;26.50;;;20.00;;
37445;SDS011;23307;51.136;14.942;2022-11-18T13:04:37;27.30;;;20.10;;
37445;SDS011;23307;51.136;14.942;2022-11-18T13:07:04;29.20;;;20.67;;
37445;SDS011;23307;51.136;14.942;2022-11-18T13:09:54;26.70;;;19.37;;
37445;SDS011;23307;51.136;14.942;2022-11-18T13:12:20;26.93;;;19.37;;
37445;SDS011;23307;51.136;14.942;2022-11-18T13:14:50;25.80;;;19.87;;
37445;SDS011;23307;51.136;14.942;2022-11-18T13:17:35;29.27;;;20.20;;
37445;SDS011;23307;51.136;14.942;2022-11-18T13:20:26;26.33;;;19.37;;
37445;SDS011;23307;51.136;14.942;2022-11-18T13:22:58;26.70;;;20.20;;
37445;SDS011;23307;51.136;14.942;2022-11-18T13:25:48;25.23;;;19.23;;
37445;SDS011;23307;51.136;14.942;2022-11-18T13:28:19;28.00;;;20.40;;
37445;SDS011;23307;51.136;14.942;2022-11-18T13:33:59;26.10;;;19.67;;
37445;SDS011;23307;51.136;14.942;2022-11-18T13:36:26;27.67;;;19.87;;
37445;SDS011;23307;51.136;14.942;2022-11-18T13:39:01;27.93;;;19.60;;
37445;SDS011;23307;51.136;14.942;2022-11-18T13:41:29;25.83;;;19.40;;
37445;SDS011;23307;51.136;14.942;2022-11-18T13:46:35;25.53;;;19.10;;
37445;SDS011;23307;51.136;14.942;2022-11-18T13:49:03;28.83;;;20.70;;
37445;SDS011;23307;51.136;14.942;2022-11-18T13:51:29;28.20;;;19.80;;
37445;SDS011;23307;51.136;14.942;2022-11-18T13:53:55;27.63;;;18.83;;
37445;SDS011;23307;51.136;14.942;2022-11-18T13:56:24;27.47;;;20.23;;
37445;SDS011;23307;51.136;14.942;2022-11-18T13:58:53;27.67;;;19.87;;
37445;SDS011;23307;51.136;14.942;2022-11-18T14:01:24;28.40;;;20.33;;
37445;SDS011;23307;51.136;14.942;2022-11-18T14:04:00;27.10;;;19.60;;
37445;SDS011;23307;51.136;14.942;2022-11-18T14:11:42;28.20;;;19.20;;
37445;SDS011;23307;51.136;14.942;2022-11-18T14:14:10;30.47;;;20.63;;
37445;SDS011;23307;51.136;14.942;2022-11-18T14:16:38;29.43;;;20.33;;
37445;SDS011;23307;51.136;14.942;2022-11-18T14:19:05;29.43;;;20.13;;
37445;SDS011;23307;51.136;14.942;2022-11-18T14:21:36;29.67;;;19.90;;
37445;SDS011;23307;51.136;14.942;2022-11-18T14:24:02;30.53;;;20.67;;
37445;SDS011;23307;51.136;14.942;2022-11-18T14:26:33;32.20;;;22.43;;
37445;SDS011;23307;51.136;14.942;2022-11-18T14:29:13;31.87;;;21.57;;
37445;SDS011;23307;51.136;14.942;2022-11-18T14:31:44;32.03;;;20.17;;
37445;SDS011;23307;51.136;14.942;2022-11-18T14:34:36;31.63;;;21.13;;
37445;SDS011;23307;51.136;14.942;2022-11-18T14:37:05;31.80;;;22.03;;
37445;SDS011;23307;51.136;14.942;2022-11-18T14:39:35;33.13;;;22.47;;
37445;SDS011;23307;51.136;14.942;2022-11-18T14:42:01;32.67;;;22.10;;
37445;SDS011;23307;51.136;14.942;2022-11-18T14:44:30;31.87;;;22.37;;
37445;SDS011;23307;51.136;14.942;2022-11-18T14:46:56;33.27;;;21.13;;
37445;SDS011;23307;51.136;14.942;2022-11-18T14:49:35;35.47;;;22.83;;
37445;SDS011;23307;51.136;14.942;2022-11-18T14:52:01;36.13;;;23.87;;
37445;SDS011;23307;51.136;14.942;2022-11-18T14:54:28;37.60;;;23.80;;
37445;SDS011;23307;51.136;14.942;2022-11-18T14:56:54;35.40;;;23.53;;
37445;SDS011;23307;51.136;14.942;2022-11-18T14:59:24;35.33;;;22.00;;
37445;SDS011;23307;51.136;14.942;2022-11-18T15:01:49;35.60;;;24.13;;
37445;SDS011;23307;51.136;14.942;2022-11-18T15:04:15;37.53;;;23.97;;
37445;SDS011;23307;51.136;14.942;2022-11-18T15:06:41;36.53;;;24.70;;
37445;SDS011;23307;51.136;14.942;2022-11-18T15:09:07;33.03;;;23.07;;
37445;SDS011;23307;51.136;14.942;2022-11-18T15:11:33;32.37;;;21.50;;
37445;SDS011;23307;51.136;14.942;2022-11-18T15:13:59;28.43;;;19.57;;
37445;SDS011;23307;51.136;14.942;2022-11-18T15:16:25;27.20;;;19.20;;
37445;SDS011;23307;51.136;14.942;2022-11-18T15:18:53;26.40;;;17.93;;
37445;SDS011;23307;51.136;14.942;2022-11-18T15:21:20;24.37;;;17.43;;
37445;SDS011;23307;51.136;14.942;2022-11-18T15:23:46;29.37;;;18.93;;
37445;SDS011;23307;51.136;14.942;2022-11-18T15:26:16;30.00;;;20.50;;
37445;SDS011;23307;51.136;14.942;2022-11-18T15:28:47;22.83;;;16.60;;
37445;SDS011;23307;51.136;14.942;2022-11-18T15:31:14;21.17;;;15.23;;
37445;SDS011;23307;51.136;14.942;2022-11-18T15:33:40;22.37;;;15.37;;
37445;SDS011;23307;51.136;14.942;2022-11-18T15:36:17;22.57;;;16.27;;
37445;SDS011;23307;51.136;14.942;2022-11-18T15:38:45;20.57;;;14.93;;
37445;SDS011;23307;51.136;14.942;2022-11-18T15:41:13;21.57;;;15.53;;
37445;SDS011;23307;51.136;14.942;2022-11-18T15:43:44;22.70;;;14.73;;
37445;SDS011;23307;51.136;14.942;2022-11-18T15:46:10;24.60;;;16.10;;
37445;SDS011;23307;51.136;14.942;2022-11-18T15:48:36;22.20;;;15.43;;
37445;SDS011;23307;51.136;14.942;2022-11-18T15:51:01;20.73;;;14.23;;
37445;SDS011;23307;51.136;14.942;2022-11-18T15:53:27;17.50;;;12.90;;
37445;SDS011;23307;51.136;14.942;2022-11-18T15:56:12;20.20;;;13.77;;
37445;SDS011;23307;51.136;14.942;2022-11-18T15:58:39;17.20;;;11.77;;
37445;SDS011;23307;51.136;14.942;2022-11-18T16:01:04;17.50;;;11.10;;
37445;SDS011;23307;51.136;14.942;2022-11-18T16:03:30;16.00;;;11.57;;
37445;SDS011;23307;51.136;14.942;2022-11-18T16:05:55;16.27;;;11.53;;
37445;SDS011;23307;51.136;14.942;2022-11-18T16:08:21;16.33;;;10.97;;
37445;SDS011;23307;51.136;14.942;2022-11-18T16:10:46;14.23;;;10.63;;
37445;SDS011;23307;51.136;14.942;2022-11-18T16:13:31;16.37;;;11.27;;
37445;SDS011;23307;51.136;14.942;2022-11-18T16:15:56;14.40;;;10.20;;
37445;SDS011;23307;51.136;14.942;2022-11-18T16:18:22;14.53;;;10.40;;
37445;SDS011;23307;51.136;14.942;2022-11-18T16:20:47;14.63;;;10.63;;
37445;SDS011;23307;51.136;14.942;2022-11-18T16:23:13;13.97;;;10.00;;
37445;SDS011;23307;51.136;14.942;2022-11-18T16:25:43;16.27;;;11.10;;
37445;SDS011;23307;51.136;14.942;2022-11-18T16:28:10;14.50;;;9.97;;
37445;SDS011;23307;51.136;14.942;2022-11-18T16:30:35;14.33;;;10.37;;
37445;SDS011;23307;51.136;14.942;2022-11-18T16:33:20;14.47;;;10.17;;
37445;SDS011;23307;51.136;14.942;2022-11-18T16:35:46;16.00;;;9.70;;
37445;SDS011;23307;51.136;14.942;2022-11-18T16:38:12;12.77;;;8.97;;
37445;SDS011;23307;51.136;14.942;2022-11-18T16:40:37;15.47;;;10.40;;